createdAt,value
2019-01-10T00:00:52.337Z,0.00
2019-01-10T00:01:52.329Z,0.00
2019-01-10T00:02:52.315Z,0.00
2019-01-10T00:03:52.323Z,0.00
2019-01-10T00:04:52.338Z,0.00
2019-01-10T00:05:52.353Z,0.00
2019-01-10T00:06:52.288Z,0.00
2019-01-10T00:07:52.266Z,0.00
2019-01-10T00:08:52.252Z,0.00
2019-01-10T00:09:52.261Z,0.00
2019-01-10T00:10:52.225Z,0.00
2019-01-10T00:11:52.217Z,0.00
2019-01-10T00:12:52.214Z,0.00
2019-01-10T00:13:52.198Z,0.00
2019-01-10T00:14:52.213Z,0.00
2019-01-10T00:15:52.175Z,0.00
2019-01-10T00:16:52.165Z,0.00
2019-01-10T00:17:52.157Z,0.00
2019-01-10T00:18:52.143Z,0.00
2019-01-10T00:19:52.141Z,0.00
2019-01-10T00:20:52.153Z,0.00
2019-01-10T00:21:52.147Z,0.00
2019-01-10T00:22:52.102Z,0.00
2019-01-10T00:23:52.098Z,0.00
2019-01-10T00:24:52.086Z,0.00
2019-01-10T00:25:52.090Z,0.00
2019-01-10T00:26:52.066Z,0.00
2019-01-10T00:27:52.053Z,0.00
2019-01-10T00:28:52.045Z,0.00
2019-01-10T00:29:52.037Z,0.00
2019-01-10T00:30:52.036Z,0.00
2019-01-10T00:31:52.015Z,0.00
2019-01-10T00:32:52.004Z,0.00
2019-01-10T00:33:51.992Z,0.00
2019-01-10T00:34:51.985Z,0.00
2019-01-10T00:35:51.991Z,0.00
2019-01-10T00:36:51.979Z,0.00
2019-01-10T00:37:51.952Z,0.00
2019-01-10T00:38:51.954Z,0.00
2019-01-10T00:39:51.923Z,0.00
2019-01-10T00:40:51.939Z,0.00
2019-01-10T00:41:51.903Z,0.00
2019-01-10T00:42:51.897Z,0.00
2019-01-10T00:43:51.885Z,0.00
2019-01-10T00:44:51.944Z,0.00
2019-01-10T00:45:51.875Z,0.00
2019-01-10T00:46:51.855Z,0.00
2019-01-10T00:47:51.841Z,0.00
2019-01-10T00:48:51.834Z,0.00
2019-01-10T00:49:51.816Z,0.00
2019-01-10T00:50:51.825Z,0.00
2019-01-10T00:51:51.801Z,0.00
2019-01-10T00:52:51.794Z,0.00
2019-01-10T00:53:51.776Z,0.00
2019-01-10T00:54:51.763Z,0.00
2019-01-10T00:55:51.793Z,0.00
2019-01-10T00:56:51.740Z,0.00
2019-01-10T00:57:51.735Z,0.00
2019-01-10T00:58:51.724Z,0.00
2019-01-10T00:59:51.751Z,0.00
2019-01-10T01:00:51.742Z,0.00
2019-01-10T01:01:51.707Z,0.00
2019-01-10T01:02:51.685Z,0.00
2019-01-10T01:03:51.673Z,0.00
2019-01-10T01:04:51.661Z,0.00
2019-01-10T01:05:51.647Z,0.00
2019-01-10T01:06:51.650Z,0.00
2019-01-10T01:07:51.644Z,0.00
2019-01-10T01:08:51.616Z,0.00
2019-01-10T01:09:51.606Z,0.00
2019-01-10T01:10:51.599Z,0.00
2019-01-10T01:11:52.535Z,0.00
2019-01-10T01:12:58.392Z,0.00
2019-01-10T01:13:52.598Z,0.00
2019-01-10T01:14:51.547Z,0.00
2019-01-10T01:15:51.539Z,0.00
2019-01-10T01:16:51.546Z,0.00
2019-01-10T01:17:51.524Z,0.00
2019-01-10T01:18:51.508Z,0.00
2019-01-10T01:19:51.498Z,0.00
2019-01-10T01:20:51.483Z,0.00
2019-01-10T01:21:51.474Z,0.00
2019-01-10T01:22:51.478Z,0.00
2019-01-10T01:23:51.457Z,0.00
2019-01-10T01:24:51.441Z,0.00
2019-01-10T01:25:51.428Z,0.00
2019-01-10T01:26:51.416Z,0.00
2019-01-10T01:27:51.459Z,0.00
2019-01-10T01:28:51.408Z,0.00
2019-01-10T01:29:51.392Z,0.00
2019-01-10T01:30:51.373Z,0.00
2019-01-10T01:31:51.359Z,0.00
2019-01-10T01:32:51.366Z,0.00
2019-01-10T01:33:51.345Z,0.00
2019-01-10T01:34:51.331Z,0.00
2019-01-10T01:35:51.323Z,0.00
2019-01-10T01:36:51.314Z,0.00
2019-01-10T01:37:51.312Z,0.00
2019-01-10T01:38:51.290Z,0.00
2019-01-10T01:39:51.278Z,0.00
2019-01-10T01:40:51.268Z,0.00
2019-01-10T01:41:51.260Z,0.00
2019-01-10T01:42:51.261Z,0.00
2019-01-10T01:43:51.256Z,0.00
2019-01-10T01:44:51.222Z,0.00
2019-01-10T01:45:51.219Z,0.00
2019-01-10T01:46:51.200Z,0.00
2019-01-10T01:47:51.212Z,0.00
2019-01-10T01:48:51.194Z,0.00
2019-01-10T01:49:51.178Z,0.00
2019-01-10T01:50:51.160Z,0.00
2019-01-10T01:51:51.153Z,0.00
2019-01-10T01:52:53.325Z,0.00
2019-01-10T01:53:51.129Z,0.00
2019-01-10T01:54:51.120Z,0.00
2019-01-10T01:55:51.108Z,0.00
2019-01-10T01:56:51.100Z,0.00
2019-01-10T01:57:51.101Z,0.00
2019-01-10T01:58:51.084Z,0.00
2019-01-10T01:59:51.064Z,0.00
2019-01-10T02:00:51.051Z,0.00
2019-01-10T02:01:51.047Z,0.00
2019-01-10T02:02:51.049Z,0.00
2019-01-10T02:03:51.027Z,0.00
2019-01-10T02:04:51.018Z,0.00
2019-01-10T02:05:51.000Z,0.00
2019-01-10T02:06:50.990Z,0.00
2019-01-10T02:07:50.997Z,0.00
2019-01-10T02:08:50.972Z,0.00
2019-01-10T02:09:50.961Z,0.00
2019-01-10T02:10:50.947Z,0.00
2019-01-10T02:11:50.935Z,0.00
2019-01-10T02:12:50.944Z,0.00
2019-01-10T02:13:50.917Z,0.00
2019-01-10T02:14:50.902Z,0.00
2019-01-10T02:15:50.898Z,0.00
2019-01-10T02:16:50.988Z,0.00
2019-01-10T02:17:50.888Z,0.00
2019-01-10T02:18:50.861Z,0.00
2019-01-10T02:19:50.853Z,0.00
2019-01-10T02:20:50.846Z,0.00
2019-01-10T02:21:50.831Z,0.00
2019-01-10T02:22:50.863Z,0.00
2019-01-10T02:23:50.817Z,0.00
2019-01-10T02:24:50.803Z,0.00
2019-01-10T02:25:50.800Z,0.00
2019-01-10T02:26:50.782Z,0.00
2019-01-10T02:27:50.776Z,0.00
2019-01-10T02:28:50.775Z,0.00
2019-01-10T02:29:50.764Z,0.00
2019-01-10T02:30:50.738Z,0.00
2019-01-10T02:31:50.732Z,0.00
2019-01-10T02:32:50.726Z,0.00
2019-01-10T02:33:50.723Z,0.00
2019-01-10T02:34:50.693Z,0.00
2019-01-10T02:35:50.686Z,0.00
2019-01-10T02:36:50.675Z,0.00
2019-01-10T02:37:50.664Z,0.00
2019-01-10T02:38:50.673Z,0.00
2019-01-10T02:39:50.654Z,0.00
2019-01-10T02:40:50.655Z,0.00
2019-01-10T02:41:50.622Z,0.00
2019-01-10T02:42:50.623Z,0.00
2019-01-10T02:43:50.624Z,0.00
2019-01-10T02:44:50.600Z,0.00
2019-01-10T02:45:50.580Z,0.00
2019-01-10T02:46:50.585Z,0.00
2019-01-10T02:47:50.559Z,0.00
2019-01-10T02:48:50.564Z,0.00
2019-01-10T02:49:50.544Z,0.00
2019-01-10T02:50:50.537Z,0.00
2019-01-10T02:51:50.516Z,0.00
2019-01-10T02:52:50.517Z,0.00
2019-01-10T02:53:50.517Z,0.00
2019-01-10T02:54:50.487Z,0.00
2019-01-10T02:55:50.477Z,0.00
2019-01-10T02:56:50.466Z,0.00
2019-01-10T02:57:50.471Z,0.00
2019-01-10T02:58:50.444Z,0.00
2019-01-10T02:59:50.442Z,0.00
2019-01-10T03:00:50.419Z,0.00
2019-01-10T03:01:50.415Z,0.00
2019-01-10T03:02:50.405Z,0.00
2019-01-10T03:03:50.394Z,0.00
2019-01-10T03:04:50.392Z,0.00
2019-01-10T03:05:50.370Z,0.00
2019-01-10T03:06:50.365Z,0.00
2019-01-10T03:07:50.346Z,0.00
2019-01-10T03:08:50.338Z,0.00
2019-01-10T03:09:50.344Z,0.00
2019-01-10T03:10:50.320Z,0.00
2019-01-10T03:11:50.305Z,0.00
2019-01-10T03:12:50.377Z,0.00
2019-01-10T03:13:50.283Z,0.00
2019-01-10T03:14:50.286Z,0.00
2019-01-10T03:15:50.260Z,0.00
2019-01-10T03:16:50.261Z,0.00
2019-01-10T03:17:50.242Z,0.00
2019-01-10T03:18:50.230Z,0.00
2019-01-10T03:19:50.257Z,0.00
2019-01-10T03:20:52.521Z,0.00
2019-01-10T03:21:50.196Z,0.00
2019-01-10T03:22:50.189Z,0.00
2019-01-10T03:23:50.179Z,0.00
2019-01-10T03:24:50.167Z,0.00
2019-01-10T03:25:50.170Z,0.00
2019-01-10T03:26:50.142Z,0.00
2019-01-10T03:27:50.143Z,0.00
2019-01-10T03:28:50.124Z,0.00
2019-01-10T03:29:50.116Z,0.00
2019-01-10T03:30:50.125Z,0.00
2019-01-10T03:31:50.097Z,0.00
2019-01-10T03:32:50.090Z,0.00
2019-01-10T03:33:50.074Z,0.00
2019-01-10T03:34:50.070Z,0.00
2019-01-10T03:35:50.067Z,0.00
2019-01-10T03:36:50.043Z,0.00
2019-01-10T03:37:50.031Z,0.00
2019-01-10T03:38:50.023Z,0.00
2019-01-10T03:39:50.010Z,0.00
2019-01-10T03:40:50.011Z,0.00
2019-01-10T03:41:49.997Z,0.00
2019-01-10T03:42:49.982Z,0.00
2019-01-10T03:43:49.972Z,0.00
2019-01-10T03:44:49.960Z,0.00
2019-01-10T03:45:49.968Z,0.00
2019-01-10T03:46:49.937Z,0.00
2019-01-10T03:47:49.928Z,0.00
2019-01-10T03:48:49.916Z,0.00
2019-01-10T03:49:49.907Z,0.00
2019-01-10T03:50:49.923Z,0.00
2019-01-10T03:51:49.882Z,0.00
2019-01-10T03:52:49.872Z,0.00
2019-01-10T03:53:49.865Z,0.00
2019-01-10T03:54:49.861Z,0.00
2019-01-10T03:55:49.861Z,0.00
2019-01-10T03:56:49.832Z,0.00
2019-01-10T03:57:49.825Z,0.00
2019-01-10T03:58:49.810Z,0.00
2019-01-10T03:59:49.802Z,0.00
2019-01-10T04:00:49.809Z,0.00
2019-01-10T04:01:49.782Z,0.00
2019-01-10T04:02:49.768Z,0.00
2019-01-10T04:03:49.760Z,0.00
2019-01-10T04:04:49.745Z,0.00
2019-01-10T04:05:49.753Z,0.00
2019-01-10T04:06:49.730Z,0.00
2019-01-10T04:07:49.721Z,0.00
2019-01-10T04:08:49.710Z,0.00
2019-01-10T04:09:49.696Z,0.00
2019-01-10T04:10:49.708Z,0.00
2019-01-10T04:11:49.676Z,0.00
2019-01-10T04:12:49.666Z,0.00
2019-01-10T04:13:57.312Z,0.00
2019-01-10T04:14:50.643Z,0.00
2019-01-10T04:15:49.637Z,0.00
2019-01-10T04:16:49.640Z,0.00
2019-01-10T04:17:49.622Z,0.00
2019-01-10T04:18:49.607Z,0.00
2019-01-10T04:19:49.598Z,0.00
2019-01-10T04:20:49.580Z,0.00
2019-01-10T04:21:49.607Z,0.00
2019-01-10T04:22:49.568Z,0.00
2019-01-10T04:23:49.552Z,0.00
2019-01-10T04:24:49.541Z,0.00
2019-01-10T04:25:49.528Z,0.00
2019-01-10T04:26:49.533Z,0.00
2019-01-10T04:27:49.518Z,0.00
2019-01-10T04:28:49.496Z,0.00
2019-01-10T04:29:49.502Z,0.00
2019-01-10T04:30:49.473Z,0.00
2019-01-10T04:31:49.478Z,0.00
2019-01-10T04:32:49.545Z,0.00
2019-01-10T04:33:49.444Z,0.00
2019-01-10T04:34:49.432Z,0.00
2019-01-10T04:35:49.423Z,0.00
2019-01-10T04:36:49.425Z,0.00
2019-01-10T04:37:49.408Z,0.00
2019-01-10T04:38:49.390Z,0.00
2019-01-10T04:39:49.374Z,0.00
2019-01-10T04:40:49.364Z,0.00
2019-01-10T04:41:49.376Z,0.00
2019-01-10T04:42:49.350Z,0.00
2019-01-10T04:43:49.337Z,0.00
2019-01-10T04:44:49.328Z,0.00
2019-01-10T04:45:49.316Z,0.00
2019-01-10T04:46:49.334Z,0.00
2019-01-10T04:47:49.302Z,0.00
2019-01-10T04:48:49.284Z,0.00
2019-01-10T04:49:49.282Z,0.00
2019-01-10T04:50:49.268Z,0.00
2019-01-10T04:51:49.252Z,0.00
2019-01-10T04:52:49.264Z,0.00
2019-01-10T04:53:49.240Z,0.00
2019-01-10T04:54:49.233Z,0.00
2019-01-10T04:55:49.212Z,0.00
2019-01-10T04:56:49.207Z,0.00
2019-01-10T04:57:49.204Z,0.00
2019-01-10T04:58:49.184Z,0.00
2019-01-10T04:59:49.187Z,0.00
2019-01-10T05:00:49.160Z,0.00
2019-01-10T05:01:49.149Z,0.00
2019-01-10T05:02:49.154Z,0.00
2019-01-10T05:03:49.128Z,0.00
2019-01-10T05:04:49.120Z,0.00
2019-01-10T05:05:49.112Z,0.00
2019-01-10T05:06:49.106Z,0.00
2019-01-10T05:07:49.110Z,0.00
2019-01-10T05:08:49.080Z,0.00
2019-01-10T05:09:49.079Z,0.00
2019-01-10T05:10:49.058Z,0.00
2019-01-10T05:11:49.043Z,0.00
2019-01-10T05:12:49.052Z,0.00
2019-01-10T05:13:49.033Z,0.00
2019-01-10T05:14:49.012Z,0.00
2019-01-10T05:15:49.012Z,0.00
2019-01-10T05:16:48.990Z,0.00
2019-01-10T05:17:48.998Z,0.00
2019-01-10T05:18:48.980Z,0.00
2019-01-10T05:19:48.972Z,0.00
2019-01-10T05:20:48.952Z,0.00
2019-01-10T05:21:48.940Z,0.00
2019-01-10T05:22:48.947Z,0.00
2019-01-10T05:23:48.920Z,0.00
2019-01-10T05:24:48.909Z,0.00
2019-01-10T05:25:48.903Z,0.00
2019-01-10T05:26:48.889Z,0.00
2019-01-10T05:27:48.893Z,0.00
2019-01-10T05:28:48.868Z,0.00
2019-01-10T05:29:48.860Z,0.00
2019-01-10T05:30:48.848Z,8.00
2019-01-10T05:31:48.838Z,0.00
2019-01-10T05:32:48.837Z,0.00
2019-01-10T05:33:48.824Z,0.00
2019-01-10T05:34:48.807Z,0.00
2019-01-10T05:35:48.795Z,0.00
2019-01-10T05:36:48.785Z,0.00
2019-01-10T05:37:48.789Z,0.00
2019-01-10T05:38:48.772Z,0.00
2019-01-10T05:39:48.750Z,0.00
2019-01-10T05:40:48.745Z,0.00
2019-01-10T05:41:48.736Z,0.00
2019-01-10T05:42:48.745Z,0.00
2019-01-10T05:43:48.710Z,8.00
2019-01-10T05:44:48.705Z,4.00
2019-01-10T05:45:48.689Z,8.00
2019-01-10T05:46:49.043Z,8.00
2019-01-10T05:47:48.685Z,4.00
2019-01-10T05:48:48.660Z,4.00
2019-01-10T05:49:48.651Z,4.00
2019-01-10T05:50:48.645Z,4.00
2019-01-10T05:51:48.640Z,0.00
2019-01-10T05:52:48.645Z,8.00
2019-01-10T05:53:48.616Z,0.00
2019-01-10T05:54:48.598Z,0.00
2019-01-10T05:55:48.597Z,0.00
2019-01-10T05:56:48.575Z,0.00
2019-01-10T05:57:48.592Z,0.00
2019-01-10T05:58:48.557Z,0.00
2019-01-10T05:59:48.543Z,8.00
2019-01-10T06:00:48.541Z,8.00
2019-01-10T06:01:48.526Z,8.00
2019-01-10T06:02:48.538Z,52.00
2019-01-10T06:03:53.155Z,48.00
2019-01-10T06:04:49.500Z,48.00
2019-01-10T06:05:48.489Z,52.00
2019-01-10T06:06:48.469Z,52.00
2019-01-10T06:07:48.461Z,48.00
2019-01-10T06:08:48.463Z,48.00
2019-01-10T06:09:48.446Z,48.00
2019-01-10T06:10:48.430Z,48.00
2019-01-10T06:11:48.419Z,48.00
2019-01-10T06:12:48.409Z,48.00
2019-01-10T06:13:48.412Z,48.00
2019-01-10T06:14:48.391Z,48.00
2019-01-10T06:15:48.381Z,48.00
2019-01-10T06:16:48.364Z,48.00
2019-01-10T06:17:48.358Z,40.00
2019-01-10T06:18:48.363Z,40.00
2019-01-10T06:19:48.341Z,40.00
2019-01-10T06:20:48.331Z,40.00
2019-01-10T06:21:48.313Z,40.00
2019-01-10T06:22:48.308Z,40.00
2019-01-10T06:23:48.309Z,40.00
2019-01-10T06:24:48.281Z,40.00
2019-01-10T06:25:48.280Z,40.00
2019-01-10T06:26:48.279Z,40.00
2019-01-10T06:27:48.260Z,40.00
2019-01-10T06:28:48.262Z,40.00
2019-01-10T06:29:48.241Z,40.00
2019-01-10T06:30:48.216Z,40.00
2019-01-10T06:31:48.219Z,40.00
2019-01-10T06:32:48.199Z,40.00
2019-01-10T06:33:48.188Z,40.00
2019-01-10T06:34:48.207Z,40.00
2019-01-10T06:35:48.171Z,44.00
2019-01-10T06:36:48.170Z,40.00
2019-01-10T06:37:48.143Z,40.00
2019-01-10T06:38:48.133Z,40.00
2019-01-10T06:39:48.133Z,40.00
2019-01-10T06:40:48.114Z,40.00
2019-01-10T06:41:48.105Z,40.00
2019-01-10T06:42:48.088Z,40.00
2019-01-10T06:43:48.085Z,40.00
2019-01-10T06:44:48.078Z,40.00
2019-01-10T06:45:48.997Z,44.00
2019-01-10T06:46:48.045Z,0.00
2019-01-10T06:47:48.038Z,0.00
2019-01-10T06:48:48.026Z,0.00
2019-01-10T06:49:48.031Z,0.00
2019-01-10T06:50:48.006Z,4.00
2019-01-10T06:51:47.996Z,4.00
2019-01-10T06:52:47.984Z,0.00
2019-01-10T06:53:47.970Z,0.00
2019-01-10T06:54:56.310Z,4.00
2019-01-10T06:55:48.951Z,4.00
2019-01-10T06:56:47.938Z,4.00
2019-01-10T06:57:47.930Z,4.00
2019-01-10T06:58:47.918Z,8.00
2019-01-10T06:59:47.934Z,8.00
2019-01-10T07:00:47.896Z,8.00
2019-01-10T07:01:47.882Z,8.00
2019-01-10T07:02:47.878Z,8.00
2019-01-10T07:03:47.865Z,12.00
2019-01-10T07:04:47.854Z,12.00
2019-01-10T07:05:47.852Z,12.00
2019-01-10T07:06:47.832Z,12.00
2019-01-10T07:07:55.843Z,12.00
2019-01-10T07:08:48.894Z,12.00
2019-01-10T07:09:47.797Z,16.00
2019-01-10T07:10:47.821Z,16.00
2019-01-10T07:11:47.776Z,16.00
2019-01-10T07:12:47.770Z,24.00
2019-01-10T07:13:47.758Z,24.00
2019-01-10T07:14:53.527Z,28.00
2019-01-10T07:15:48.743Z,32.00
2019-01-10T07:16:53.483Z,36.00
2019-01-10T07:17:48.712Z,36.00
2019-01-10T07:18:47.706Z,44.00
2019-01-10T07:19:47.693Z,40.00
2019-01-10T07:20:47.756Z,52.00
2019-01-10T07:21:47.669Z,56.00
2019-01-10T07:22:47.658Z,60.00
2019-01-10T07:23:47.647Z,64.00
2019-01-10T07:24:47.641Z,68.00
2019-01-10T07:25:47.641Z,68.00
2019-01-10T07:26:47.724Z,76.00
2019-01-10T07:27:47.612Z,80.00
2019-01-10T07:28:47.591Z,84.00
2019-01-10T07:29:47.585Z,88.00
2019-01-10T07:30:47.592Z,96.00
2019-01-10T07:31:47.567Z,96.00
2019-01-10T07:32:47.551Z,100.00
2019-01-10T07:33:47.548Z,104.00
2019-01-10T07:34:47.533Z,104.00
2019-01-10T07:35:47.532Z,112.00
2019-01-10T07:36:47.510Z,128.00
2019-01-10T07:37:47.503Z,124.00
2019-01-10T07:38:47.494Z,124.00
2019-01-10T07:39:47.474Z,132.00
2019-01-10T07:40:47.485Z,140.00
2019-01-10T07:41:47.456Z,140.00
2019-01-10T07:42:47.446Z,144.00
2019-01-10T07:43:47.436Z,152.00
2019-01-10T07:44:47.421Z,152.00
2019-01-10T07:45:47.427Z,156.00
2019-01-10T07:46:47.401Z,160.00
2019-01-10T07:47:47.391Z,164.00
2019-01-10T07:48:47.420Z,168.00
2019-01-10T07:49:47.371Z,176.00
2019-01-10T07:50:47.366Z,196.00
2019-01-10T07:51:47.348Z,192.00
2019-01-10T07:52:47.341Z,208.00
2019-01-10T07:53:47.328Z,216.00
2019-01-10T07:54:47.319Z,224.00
2019-01-10T07:55:47.316Z,204.00
2019-01-10T07:56:47.297Z,192.00
2019-01-10T07:57:47.287Z,168.00
2019-01-10T07:58:47.271Z,160.00
2019-01-10T07:59:47.262Z,172.00
2019-01-10T08:00:47.278Z,184.00
2019-01-10T08:01:47.239Z,176.00
2019-01-10T08:02:47.232Z,176.00
2019-01-10T08:03:47.222Z,172.00
2019-01-10T08:04:47.200Z,180.00
2019-01-10T08:05:47.196Z,196.00
2019-01-10T08:06:47.205Z,176.00
2019-01-10T08:07:47.169Z,184.00
2019-01-10T08:08:47.158Z,216.00
2019-01-10T08:09:47.147Z,224.00
2019-01-10T08:10:47.147Z,212.00
2019-01-10T08:11:47.147Z,184.00
2019-01-10T08:12:47.114Z,164.00
2019-01-10T08:13:47.107Z,168.00
2019-01-10T08:14:47.098Z,192.00
2019-01-10T08:15:47.086Z,172.00
2019-01-10T08:16:47.093Z,164.00
2019-01-10T08:17:47.059Z,176.00
2019-01-10T08:18:47.050Z,180.00
2019-01-10T08:19:47.045Z,180.00
2019-01-10T08:20:47.037Z,176.00
2019-01-10T08:21:47.047Z,200.00
2019-01-10T08:22:47.014Z,236.00
2019-01-10T08:23:47.005Z,188.00
2019-01-10T08:24:46.994Z,196.00
2019-01-10T08:25:47.016Z,188.00
2019-01-10T08:26:46.982Z,180.00
2019-01-10T08:27:46.961Z,204.00
2019-01-10T08:28:46.942Z,216.00
2019-01-10T08:29:46.943Z,232.00
2019-01-10T08:30:46.927Z,272.00
2019-01-10T08:31:46.936Z,284.00
2019-01-10T08:32:46.902Z,288.00
2019-01-10T08:33:46.899Z,284.00
2019-01-10T08:34:46.881Z,296.00
2019-01-10T08:35:46.878Z,332.00
2019-01-10T08:36:46.879Z,324.00
2019-01-10T08:37:46.857Z,292.00
2019-01-10T08:38:46.841Z,316.00
2019-01-10T08:39:46.832Z,316.00
2019-01-10T08:40:46.826Z,344.00
2019-01-10T08:41:46.838Z,372.00
2019-01-10T08:42:46.804Z,336.00
2019-01-10T08:43:46.801Z,344.00
2019-01-10T08:44:46.804Z,340.00
2019-01-10T08:45:46.769Z,368.00
2019-01-10T08:46:46.774Z,448.00
2019-01-10T08:47:46.753Z,456.00
2019-01-10T08:48:46.741Z,424.00
2019-01-10T08:49:46.726Z,508.00
2019-01-10T08:50:46.716Z,552.00
2019-01-10T08:51:46.738Z,612.00
2019-01-10T08:52:46.694Z,592.00
2019-01-10T08:53:53.799Z,592.00
2019-01-10T08:54:47.672Z,584.00
2019-01-10T08:55:46.662Z,568.00
2019-01-10T08:56:46.654Z,424.00
2019-01-10T08:57:46.660Z,420.00
2019-01-10T08:58:46.632Z,396.00
2019-01-10T08:59:46.618Z,408.00
2019-01-10T09:00:46.608Z,356.00
2019-01-10T09:01:46.595Z,364.00
2019-01-10T09:02:46.702Z,384.00
2019-01-10T09:03:46.577Z,344.00
2019-01-10T09:04:46.572Z,332.00
2019-01-10T09:05:46.556Z,336.00
2019-01-10T09:06:46.551Z,352.00
2019-01-10T09:07:46.546Z,420.00
2019-01-10T09:08:46.518Z,532.00
2019-01-10T09:09:46.509Z,652.00
2019-01-10T09:10:46.500Z,700.00
2019-01-10T09:11:46.490Z,708.00
2019-01-10T09:12:46.501Z,728.00
2019-01-10T09:13:46.463Z,828.00
2019-01-10T09:14:46.455Z,780.00
2019-01-10T09:15:46.444Z,744.00
2019-01-10T09:16:46.436Z,720.00
2019-01-10T09:17:46.466Z,632.00
2019-01-10T09:18:46.408Z,548.00
2019-01-10T09:19:46.403Z,500.00
2019-01-10T09:20:46.388Z,400.00
2019-01-10T09:21:46.394Z,412.00
2019-01-10T09:22:46.388Z,424.00
2019-01-10T09:23:46.359Z,404.00
2019-01-10T09:24:46.345Z,352.00
2019-01-10T09:25:46.342Z,356.00
2019-01-10T09:26:46.322Z,364.00
2019-01-10T09:27:46.330Z,360.00
2019-01-10T09:28:46.309Z,336.00
2019-01-10T09:29:46.293Z,344.00
2019-01-10T09:30:46.285Z,384.00
2019-01-10T09:31:46.278Z,532.00
2019-01-10T09:32:46.276Z,532.00
2019-01-10T09:33:46.254Z,572.00
2019-01-10T09:34:46.242Z,588.00
2019-01-10T09:35:46.229Z,544.00
2019-01-10T09:36:46.219Z,468.00
2019-01-10T09:37:46.228Z,392.00
2019-01-10T09:38:46.194Z,360.00
2019-01-10T09:39:46.183Z,448.00
2019-01-10T09:40:46.176Z,448.00
2019-01-10T09:41:46.169Z,492.00
2019-01-10T09:42:46.149Z,540.00
2019-01-10T09:43:46.158Z,524.00
2019-01-10T09:44:46.130Z,524.00
2019-01-10T09:45:46.119Z,484.00
2019-01-10T09:46:46.115Z,448.00
2019-01-10T09:47:46.103Z,548.00
2019-01-10T09:48:46.112Z,692.00
2019-01-10T09:49:46.074Z,664.00
2019-01-10T09:50:46.069Z,688.00
2019-01-10T09:51:46.062Z,748.00
2019-01-10T09:52:46.040Z,772.00
2019-01-10T09:53:46.050Z,764.00
2019-01-10T09:54:46.047Z,744.00
2019-01-10T09:55:46.017Z,716.00
2019-01-10T09:56:45.998Z,732.00
2019-01-10T09:57:45.999Z,748.00
2019-01-10T09:58:45.994Z,712.00
2019-01-10T09:59:45.988Z,664.00
2019-01-10T10:00:45.967Z,696.00
2019-01-10T10:01:45.953Z,756.00
2019-01-10T10:02:45.937Z,712.00
2019-01-10T10:03:45.943Z,632.00
2019-01-10T10:04:45.913Z,604.00
2019-01-10T10:05:45.902Z,588.00
2019-01-10T10:06:45.892Z,568.00
2019-01-10T10:07:45.882Z,552.00
2019-01-10T10:08:45.882Z,556.00
2019-01-10T10:09:45.860Z,588.00
2019-01-10T10:10:45.845Z,600.00
2019-01-10T10:11:45.844Z,612.00
2019-01-10T10:12:45.828Z,624.00
2019-01-10T10:13:45.847Z,580.00
2019-01-10T10:14:45.807Z,592.00
2019-01-10T10:15:52.307Z,564.00
2019-01-10T10:16:46.782Z,496.00
2019-01-10T10:17:45.783Z,484.00
2019-01-10T10:18:45.766Z,500.00
2019-01-10T10:19:45.776Z,472.00
2019-01-10T10:20:45.742Z,468.00
2019-01-10T10:21:45.730Z,548.00
2019-01-10T10:22:45.724Z,648.00
2019-01-10T10:23:45.703Z,716.00
2019-01-10T10:24:45.710Z,756.00
2019-01-10T10:25:45.689Z,820.00
2019-01-10T10:26:45.678Z,808.00
2019-01-10T10:27:45.664Z,656.00
2019-01-10T10:28:45.649Z,652.00
2019-01-10T10:29:45.655Z,744.00
2019-01-10T10:30:45.633Z,772.00
2019-01-10T10:31:45.625Z,832.00
2019-01-10T10:32:45.610Z,796.00
2019-01-10T10:33:45.596Z,788.00
2019-01-10T10:34:45.602Z,924.00
2019-01-10T10:35:45.674Z,752.00
2019-01-10T10:36:45.575Z,788.00
2019-01-10T10:37:45.561Z,760.00
2019-01-10T10:38:45.545Z,736.00
2019-01-10T10:39:45.554Z,760.00
2019-01-10T10:40:45.531Z,700.00
2019-01-10T10:41:45.512Z,692.00
2019-01-10T10:42:45.502Z,680.00
2019-01-10T10:43:45.500Z,728.00
2019-01-10T10:44:45.498Z,792.00
2019-01-10T10:45:45.468Z,764.00
2019-01-10T10:46:45.464Z,728.00
2019-01-10T10:47:45.455Z,780.00
2019-01-10T10:48:45.435Z,784.00
2019-01-10T10:49:45.445Z,788.00
2019-01-10T10:50:45.416Z,736.00
2019-01-10T10:51:45.403Z,728.00
2019-01-10T10:52:45.394Z,756.00
2019-01-10T10:53:45.381Z,764.00
2019-01-10T10:54:45.373Z,656.00
2019-01-10T10:55:45.373Z,600.00
2019-01-10T10:56:45.349Z,628.00
2019-01-10T10:57:45.336Z,604.00
2019-01-10T10:58:45.323Z,652.00
2019-01-10T10:59:45.314Z,712.00
2019-01-10T11:00:45.318Z,780.00
2019-01-10T11:01:45.294Z,872.00
2019-01-10T11:02:45.285Z,740.00
2019-01-10T11:03:45.273Z,840.00
2019-01-10T11:04:45.259Z,800.00
2019-01-10T11:05:45.262Z,796.00
2019-01-10T11:06:45.240Z,800.00
2019-01-10T11:07:45.231Z,856.00
2019-01-10T11:08:45.217Z,760.00
2019-01-10T11:09:45.207Z,820.00
2019-01-10T11:10:45.229Z,808.00
2019-01-10T11:11:45.187Z,684.00
2019-01-10T11:12:45.186Z,760.00
2019-01-10T11:13:45.170Z,840.00
2019-01-10T11:14:48.249Z,984.00
2019-01-10T11:15:45.155Z,716.00
2019-01-10T11:16:45.154Z,804.00
2019-01-10T11:17:45.126Z,820.00
2019-01-10T11:18:45.118Z,788.00
2019-01-10T11:19:45.112Z,828.00
2019-01-10T11:20:45.100Z,760.00
2019-01-10T11:21:45.105Z,760.00
2019-01-10T11:22:45.072Z,728.00
2019-01-10T11:23:45.069Z,772.00
2019-01-10T11:24:45.059Z,1012.00
2019-01-10T11:25:45.051Z,840.00
2019-01-10T11:26:45.063Z,624.00
2019-01-10T11:27:45.022Z,628.00
2019-01-10T11:28:45.019Z,800.00
2019-01-10T11:29:45.009Z,828.00
2019-01-10T11:30:44.994Z,836.00
2019-01-10T11:31:44.993Z,772.00
2019-01-10T11:32:44.994Z,676.00
2019-01-10T11:33:44.967Z,644.00
2019-01-10T11:34:44.955Z,664.00
2019-01-10T11:35:44.947Z,616.00
2019-01-10T11:36:44.935Z,692.00
2019-01-10T11:37:44.943Z,632.00
2019-01-10T11:38:45.233Z,496.00
2019-01-10T11:39:44.908Z,520.00
2019-01-10T11:40:44.890Z,600.00
2019-01-10T11:41:44.892Z,792.00
2019-01-10T11:42:44.886Z,860.00
2019-01-10T11:43:44.866Z,1104.00
2019-01-10T11:44:44.849Z,1188.00
2019-01-10T11:45:44.841Z,948.00
2019-01-10T11:46:44.830Z,820.00
2019-01-10T11:47:44.837Z,888.00
2019-01-10T11:48:44.809Z,1124.00
2019-01-10T11:49:44.800Z,1068.00
2019-01-10T11:50:44.794Z,952.00
2019-01-10T11:51:44.786Z,716.00
2019-01-10T11:52:44.792Z,648.00
2019-01-10T11:53:44.756Z,680.00
2019-01-10T11:54:44.756Z,788.00
2019-01-10T11:55:44.741Z,748.00
2019-01-10T11:56:44.733Z,692.00
2019-01-10T11:57:44.816Z,752.00
2019-01-10T11:58:44.707Z,780.00
2019-01-10T11:59:44.695Z,864.00
2019-01-10T12:00:44.688Z,1008.00
2019-01-10T12:01:44.672Z,956.00
2019-01-10T12:02:44.663Z,848.00
2019-01-10T12:03:44.672Z,724.00
2019-01-10T12:04:44.642Z,624.00
2019-01-10T12:05:47.870Z,656.00
2019-01-10T12:06:45.616Z,716.00
2019-01-10T12:07:44.607Z,748.00
2019-01-10T12:08:44.615Z,756.00
2019-01-10T12:09:44.591Z,764.00
2019-01-10T12:10:44.580Z,736.00
2019-01-10T12:11:44.569Z,628.00
2019-01-10T12:12:44.558Z,604.00
2019-01-10T12:13:44.560Z,636.00
2019-01-10T12:14:44.534Z,760.00
2019-01-10T12:15:44.526Z,664.00
2019-01-10T12:16:44.515Z,720.00
2019-01-10T12:17:44.501Z,880.00
2019-01-10T12:18:44.529Z,1012.00
2019-01-10T12:19:44.482Z,852.00
2019-01-10T12:20:44.469Z,772.00
2019-01-10T12:21:44.474Z,680.00
2019-01-10T12:22:44.448Z,684.00
2019-01-10T12:23:44.448Z,656.00
2019-01-10T12:24:44.427Z,660.00
2019-01-10T12:25:45.594Z,660.00
2019-01-10T12:26:44.403Z,664.00
2019-01-10T12:27:44.394Z,660.00
2019-01-10T12:28:44.402Z,644.00
2019-01-10T12:29:44.366Z,656.00
2019-01-10T12:30:44.365Z,692.00
2019-01-10T12:31:44.354Z,688.00
2019-01-10T12:32:44.338Z,684.00
2019-01-10T12:33:44.360Z,628.00
2019-01-10T12:34:44.325Z,556.00
2019-01-10T12:35:44.319Z,500.00
2019-01-10T12:36:44.297Z,504.00
2019-01-10T12:37:44.290Z,520.00
2019-01-10T12:38:44.281Z,536.00
2019-01-10T12:39:44.287Z,556.00
2019-01-10T12:40:44.249Z,568.00
2019-01-10T12:41:44.251Z,552.00
2019-01-10T12:42:44.228Z,528.00
2019-01-10T12:43:44.223Z,532.00
2019-01-10T12:44:44.234Z,552.00
2019-01-10T12:45:44.199Z,636.00
2019-01-10T12:46:44.188Z,764.00
2019-01-10T12:47:44.193Z,788.00
2019-01-10T12:48:44.163Z,664.00
2019-01-10T12:49:44.158Z,680.00
2019-01-10T12:50:44.166Z,780.00
2019-01-10T12:51:44.132Z,816.00
2019-01-10T12:52:44.121Z,704.00
2019-01-10T12:53:44.111Z,620.00
2019-01-10T12:54:44.100Z,604.00